Arnett, OK

1:51 AM CDT on September 02, 2014 (GMT -0500)
Gage | Change Station
CLOSE
Current Station
Airport
Location: Gage,
Elevation: 2195 ft
Nearby Weather Stations

Elev 2195 ft 36.30 °N, 99.78 °W | Updated 58 minutes ago

Clear
Clear
71 °F
Feels Like 71 °F
N
8
Wind Variable Wind from NE

Today
High -- | Low -- °F
--% Chance of Precip.
Yesterday
High -- | Low -- °F
Precip. -- in
7:11 AM 8:05 PM
Waxing Crescent, 48% visible
Pressure 29.83 in
Visibility 10.0 miles
Clouds Clear
Dew Point 68 °F
Humidity 90%
Rainfall 0.00 in
Snow Depth Not available.
UV 0 out of 12
Pollen 10.80 out of 12
Air Quality Not available.
Flu Activity Not available.
METAR KGAG 020553Z AUTO 04007KT 10SM CLR 22/20 A2991 RMK AO2 SLP101 T02170200 10317 20217 403280194 50012

More Conditions Fewer Conditions

Pressure 29.83 in
Visibility 10.0 miles
Clouds Clear
Dew Point 68 °F
Humidity 90%
Rainfall 0.00 in
Snow Depth Not available.
UV 0 out of 12
Pollen 10.80 out of 12
Air Quality Not available.
Flu Activity Not available.
METAR KGAG 020553Z AUTO 04007KT 10SM CLR 22/20 A2991 RMK AO2 SLP101 T02170200 10317 20217 403280194 50012

More Conditions Fewer Conditions

10-Day Weather Forecast

Almanac

Astronomy

Sep. 02, 2014 Rise Set
Actual Time 7:11 AM CDT 8:05 PM CDT
Civil Twilight 6:45 AM CDT 8:31 PM CDT
Nautical Twilight 6:14 AM CDT 9:02 PM CDT
Astronomical Twilight 5:42 AM CDT 9:34 PM CDT
Moon 2:44 PM CDT 12:21 AM CDT
Length of Visible Light 13h 45m
Length of Day
12h 53m
Tomorrow will be 2m 12s shorter.
Waxing Crescent, 48% of the Moon is Illuminated
Today
Waxing Crescent
Sep 2
First Quarter
Sep 8
Full
Sep 15
Last Quarter
Sep 24
New

Today's Extremes

State Highs State Lows

Community

WunderPhotos

Upload Photos

1,749,589 photos uploaded!

WunderBlogs® & News

Nearby

Snow Depth

Station Depth Elevation
No new snow has been reported.

Earthquake Activity

City Distance Mag. Time & Date
Medford, Oklahoma 110 miles 3.3 11:58 PM CDT
2014-09-01
Enid, Oklahoma 105 miles 3.4 11:57 AM CDT
2014-08-31
Enid, Oklahoma 104 miles 3.7 2:20 AM CDT
2014-08-31
Minimum magnitude displayed is 2.5.

Coastal Water Temperatures

Place Temperature
No Stations Reporting

Nearby Weather Stations